createdAt,value
2022-09-15T00:02:18.588Z,73.46
2022-09-15T00:04:44.960Z,73.63
2022-09-15T00:07:11.284Z,73.47
2022-09-15T00:09:37.584Z,72.95
2022-09-15T00:12:08.680Z,74.01
2022-09-15T00:14:35.012Z,74.43
2022-09-15T00:17:01.356Z,73.80
2022-09-15T00:19:27.682Z,73.98
2022-09-15T00:21:53.999Z,73.94
2022-09-15T00:24:20.369Z,74.07
2022-09-15T00:26:46.763Z,73.78
2022-09-15T00:29:13.088Z,72.84
2022-09-15T00:31:39.414Z,72.83
2022-09-15T00:34:07.053Z,74.25
2022-09-15T00:36:33.857Z,73.93
2022-09-15T00:39:00.370Z,73.89
2022-09-15T00:41:26.746Z,73.08
2022-09-15T00:43:57.204Z,73.88
2022-09-15T00:46:27.544Z,72.57
2022-09-15T00:49:05.775Z,73.70
2022-09-15T00:51:50.425Z,74.14
2022-09-15T00:54:18.659Z,72.98
2022-09-15T00:56:47.889Z,73.56
2022-09-15T00:59:16.932Z,73.91
2022-09-15T01:01:43.758Z,74.09
2022-09-15T01:04:10.248Z,74.72
2022-09-15T01:06:38.215Z,76.04
2022-09-15T01:09:25.614Z,76.12
2022-09-15T01:11:51.980Z,75.12
2022-09-15T01:14:18.282Z,74.58
2022-09-15T01:16:59.455Z,74.86
2022-09-15T01:19:45.789Z,74.71
2022-09-15T01:22:12.056Z,74.48
2022-09-15T01:24:41.182Z,75.85
2022-09-15T01:27:42.186Z,74.95
2022-09-15T01:30:12.198Z,75.58
2022-09-15T01:33:06.731Z,75.04
2022-09-15T01:35:36.038Z,74.64
2022-09-15T01:38:15.342Z,75.49
2022-09-15T01:40:44.706Z,74.67
2022-09-15T01:43:11.284Z,74.88
2022-09-15T01:45:39.115Z,75.10
2022-09-15T01:48:06.328Z,74.35
2022-09-15T01:50:36.608Z,74.08
2022-09-15T01:53:05.633Z,74.26
2022-09-15T01:55:58.000Z,75.47
2022-09-15T01:58:24.396Z,74.84
2022-09-15T02:00:53.725Z,74.13
2022-09-15T02:03:22.354Z,73.95
2022-09-15T02:05:52.437Z,73.72
2022-09-15T02:08:36.575Z,74.71
2022-09-15T02:11:09.014Z,74.74
2022-09-15T02:13:45.165Z,74.04
2022-09-15T02:16:15.854Z,73.52
2022-09-15T02:18:46.030Z,74.06
2022-09-15T02:21:18.842Z,74.16
2022-09-15T02:23:50.964Z,75.31
2022-09-15T02:26:19.591Z,75.30
2022-09-15T02:28:48.150Z,75.24
2022-09-15T02:31:16.126Z,76.96
2022-09-15T02:33:45.270Z,75.47
2022-09-15T02:36:13.494Z,77.08
2022-09-15T02:38:43.918Z,77.29
2022-09-15T02:41:10.262Z,77.66
2022-09-15T02:43:44.011Z,77.61
2022-09-15T02:46:10.378Z,77.53
2022-09-15T02:48:36.708Z,78.69
2022-09-15T02:51:03.069Z,77.73
2022-09-15T02:53:29.385Z,78.87
2022-09-15T02:55:56.217Z,77.21
2022-09-15T02:58:22.498Z,79.15
2022-09-15T03:00:48.877Z,78.68
2022-09-15T03:03:15.283Z,80.11
2022-09-15T03:05:41.567Z,79.31
2022-09-15T03:08:07.847Z,78.32
2022-09-15T03:10:34.241Z,80.25
2022-09-15T03:13:00.552Z,79.91
2022-09-15T03:15:27.083Z,78.27
2022-09-15T03:17:53.911Z,79.18
2022-09-15T03:20:24.227Z,79.37
2022-09-15T03:22:50.569Z,79.89
2022-09-15T03:25:17.530Z,78.49
2022-09-15T03:27:43.840Z,79.76
2022-09-15T03:30:11.148Z,78.73
2022-09-15T03:32:37.704Z,78.77
2022-09-15T03:35:04.729Z,78.62
2022-09-15T03:37:31.142Z,79.24
2022-09-15T03:39:58.033Z,77.43
2022-09-15T03:42:24.433Z,77.28
2022-09-15T03:44:50.774Z,78.38
2022-09-15T03:47:17.227Z,78.39
2022-09-15T03:49:43.504Z,78.86
2022-09-15T03:52:10.046Z,77.92
2022-09-15T03:54:36.375Z,76.70
2022-09-15T03:57:03.272Z,76.87
2022-09-15T03:59:29.556Z,76.41
2022-09-15T04:01:56.039Z,77.97
2022-09-15T04:04:22.419Z,75.81
2022-09-15T04:06:48.737Z,76.91
2022-09-15T04:09:15.162Z,76.73
2022-09-15T04:11:41.824Z,75.49
2022-09-15T04:14:08.179Z,75.29
2022-09-15T04:16:34.660Z,76.34
2022-09-15T04:19:01.043Z,76.21
2022-09-15T04:21:27.406Z,77.00
2022-09-15T04:23:54.090Z,77.60
2022-09-15T04:26:31.348Z,76.15
2022-09-15T04:29:03.024Z,77.64
2022-09-15T04:31:30.783Z,75.80
2022-09-15T04:33:57.205Z,77.58
2022-09-15T04:36:24.789Z,77.23
2022-09-15T04:38:51.555Z,77.93
2022-09-15T04:41:18.916Z,77.91
2022-09-15T04:43:45.808Z,76.89
2022-09-15T04:46:12.887Z,76.60
2022-09-15T04:48:39.328Z,77.16
2022-09-15T04:51:06.990Z,77.88
2022-09-15T04:53:33.499Z,77.76
2022-09-15T04:56:07.262Z,77.34
2022-09-15T04:58:37.504Z,78.67
2022-09-15T05:01:10.610Z,78.39
2022-09-15T05:03:37.999Z,77.86
2022-09-15T05:06:05.853Z,77.90
2022-09-15T05:08:32.194Z,77.15
2022-09-15T05:10:59.462Z,77.33
2022-09-15T05:13:25.756Z,77.57
2022-09-15T05:15:52.084Z,77.21
2022-09-15T05:18:18.449Z,76.78
2022-09-15T05:20:44.751Z,78.42
2022-09-15T05:23:11.038Z,77.88
2022-09-15T05:25:38.685Z,77.73
2022-09-15T05:28:05.650Z,78.64
2022-09-15T05:30:38.609Z,78.48
2022-09-15T05:33:07.005Z,78.54
2022-09-15T05:35:33.281Z,77.28
2022-09-15T05:37:59.706Z,78.88
2022-09-15T05:40:26.060Z,79.24
2022-09-15T05:42:52.732Z,79.02
2022-09-15T05:45:19.010Z,77.73
2022-09-15T05:47:45.324Z,78.67
2022-09-15T05:50:11.647Z,77.04
2022-09-15T05:52:38.115Z,76.84
2022-09-15T05:55:04.619Z,78.39
2022-09-15T05:57:30.968Z,77.55
2022-09-15T05:59:57.305Z,76.68
2022-09-15T06:02:23.685Z,76.12
2022-09-15T06:04:49.998Z,75.75
2022-09-15T06:07:16.526Z,77.37
2022-09-15T06:09:42.829Z,76.40
2022-09-15T06:12:09.354Z,77.72
2022-09-15T06:14:35.641Z,76.04
2022-09-15T06:17:01.955Z,76.90
2022-09-15T06:19:28.288Z,78.12
2022-09-15T06:21:54.557Z,77.29
2022-09-15T06:24:21.544Z,77.00
2022-09-15T06:26:47.862Z,77.84
2022-09-15T06:29:14.196Z,78.48
2022-09-15T06:31:40.614Z,77.69
2022-09-15T06:34:08.557Z,78.55
2022-09-15T06:36:36.431Z,78.44
2022-09-15T06:39:03.049Z,79.00
2022-09-15T06:41:38.174Z,79.15
2022-09-15T06:44:09.479Z,79.59
2022-09-15T06:46:36.155Z,78.75
2022-09-15T06:49:02.540Z,77.82
2022-09-15T06:51:31.360Z,77.91
2022-09-15T06:53:57.837Z,77.51
2022-09-15T06:56:24.212Z,78.27
2022-09-15T06:58:50.581Z,78.83
2022-09-15T07:01:21.499Z,77.86
2022-09-15T07:03:48.007Z,78.21
2022-09-15T07:06:14.755Z,77.72
2022-09-15T07:08:41.649Z,78.86
2022-09-15T07:11:08.792Z,77.85
2022-09-15T07:13:35.482Z,78.33
2022-09-15T07:16:03.961Z,77.66
2022-09-15T07:18:34.270Z,78.62
2022-09-15T07:21:02.003Z,79.69
2022-09-15T07:23:28.953Z,79.23
2022-09-15T07:26:07.211Z,78.01
2022-09-15T07:28:34.173Z,79.85
2022-09-15T07:31:00.527Z,79.01
2022-09-15T07:33:26.848Z,79.33
2022-09-15T07:35:53.146Z,78.17
2022-09-15T07:38:19.445Z,78.21
2022-09-15T07:40:46.388Z,78.41
2022-09-15T07:43:13.184Z,78.77
2022-09-15T07:45:39.734Z,78.16
2022-09-15T07:48:07.257Z,77.85
2022-09-15T07:50:33.552Z,78.15
2022-09-15T07:52:59.872Z,77.57
2022-09-15T07:55:26.257Z,77.66
2022-09-15T07:58:02.348Z,76.56
2022-09-15T08:00:28.900Z,77.00
2022-09-15T08:02:55.786Z,77.57
2022-09-15T08:05:25.780Z,76.99
2022-09-15T08:07:52.114Z,76.23
2022-09-15T08:10:18.485Z,77.70
2022-09-15T08:12:44.881Z,78.37
2022-09-15T08:15:11.220Z,77.63
2022-09-15T08:17:37.512Z,77.62
2022-09-15T08:20:03.956Z,77.16
2022-09-15T08:22:30.290Z,78.27
2022-09-15T08:24:56.567Z,78.10
2022-09-15T08:27:24.614Z,77.20
2022-09-15T08:29:51.504Z,76.38
2022-09-15T08:32:17.905Z,78.10
2022-09-15T08:34:44.455Z,75.98
2022-09-15T08:37:10.814Z,76.35
2022-09-15T08:39:37.184Z,75.53
2022-09-15T08:42:04.190Z,75.75
2022-09-15T08:44:36.510Z,75.40
2022-09-15T08:47:11.132Z,76.56
2022-09-15T08:49:56.212Z,76.00
2022-09-15T08:52:25.602Z,76.57
2022-09-15T08:54:55.241Z,77.42
2022-09-15T08:57:23.404Z,75.32
2022-09-15T08:59:49.856Z,75.39
2022-09-15T09:02:29.395Z,76.51
2022-09-15T09:05:11.048Z,75.04
2022-09-15T09:08:03.806Z,76.41
2022-09-15T09:10:33.166Z,75.65
2022-09-15T09:13:13.577Z,75.21
2022-09-15T09:15:42.945Z,75.18
2022-09-15T09:18:26.109Z,75.93
2022-09-15T09:21:01.085Z,76.04
2022-09-15T09:23:28.472Z,75.41
2022-09-15T09:25:56.319Z,73.77
2022-09-15T09:28:27.955Z,74.08
2022-09-15T09:30:55.938Z,74.70
2022-09-15T09:33:34.613Z,74.61
2022-09-15T09:36:02.382Z,72.87
2022-09-15T09:38:31.677Z,72.25
2022-09-15T09:41:02.132Z,72.02
2022-09-15T09:43:29.927Z,71.81
2022-09-15T09:45:56.552Z,70.40
2022-09-15T09:48:24.119Z,70.34
2022-09-15T09:50:50.791Z,69.81
2022-09-15T09:53:17.094Z,69.78
2022-09-15T09:55:45.733Z,68.29
2022-09-15T09:58:14.472Z,68.72
2022-09-15T10:00:41.115Z,68.31
2022-09-15T10:03:24.570Z,67.00
2022-09-15T10:06:03.770Z,65.89
2022-09-15T10:08:30.428Z,66.69
2022-09-15T10:11:00.862Z,67.80
2022-09-15T10:13:27.212Z,68.89
2022-09-15T10:15:56.264Z,69.50
2022-09-15T10:18:26.669Z,69.12
2022-09-15T10:20:53.066Z,69.14
2022-09-15T10:23:21.552Z,69.53
2022-09-15T10:26:03.609Z,69.79
2022-09-15T10:28:29.972Z,69.61
2022-09-15T10:31:00.802Z,71.22
2022-09-15T10:33:28.239Z,70.98
2022-09-15T10:35:55.265Z,71.75
2022-09-15T10:38:30.590Z,71.91
2022-09-15T10:41:20.297Z,71.52
2022-09-15T10:44:05.625Z,71.42
2022-09-15T10:46:50.650Z,69.28
2022-09-15T10:49:29.082Z,68.12
2022-09-15T10:52:01.535Z,68.24
2022-09-15T10:54:34.135Z,68.20
2022-09-15T10:57:10.580Z,66.82
2022-09-15T10:59:53.633Z,67.88
2022-09-15T11:02:19.951Z,67.35
2022-09-15T11:05:04.641Z,67.40
2022-09-15T11:07:42.394Z,66.81
2022-09-15T11:10:19.041Z,66.80
2022-09-15T11:13:03.843Z,66.45
2022-09-15T11:15:33.262Z,66.04
2022-09-15T11:18:02.544Z,67.82
2022-09-15T11:20:39.204Z,67.74
2022-09-15T11:23:17.892Z,67.70
2022-09-15T11:25:47.014Z,66.87
2022-09-15T11:28:24.996Z,65.63
2022-09-15T11:31:11.744Z,66.12
2022-09-15T11:33:43.284Z,65.63
2022-09-15T11:36:12.800Z,65.67
2022-09-15T11:38:48.798Z,66.65
2022-09-15T11:41:33.454Z,65.80
2022-09-15T11:44:09.683Z,65.86
2022-09-15T11:46:53.459Z,65.12
2022-09-15T11:49:23.116Z,64.73
2022-09-15T11:51:52.558Z,64.28
2022-09-15T11:54:36.927Z,62.05
2022-09-15T11:57:03.635Z,62.09
2022-09-15T11:59:40.230Z,62.41
2022-09-15T12:02:15.979Z,60.89
2022-09-15T12:05:03.211Z,60.94
2022-09-15T12:07:32.659Z,60.95
2022-09-15T12:10:05.275Z,60.38
2022-09-15T12:12:33.458Z,61.30
2022-09-15T12:14:59.756Z,61.77
2022-09-15T12:17:26.051Z,61.56
2022-09-15T12:19:59.966Z,61.70
2022-09-15T12:22:26.301Z,61.60
2022-09-15T12:24:52.604Z,61.40
2022-09-15T12:27:20.129Z,61.50
2022-09-15T12:29:50.480Z,60.70
2022-09-15T12:32:30.343Z,60.75
2022-09-15T12:34:56.732Z,60.02
2022-09-15T12:37:24.329Z,60.49
2022-09-15T12:39:51.178Z,61.58
2022-09-15T12:42:23.640Z,61.17
2022-09-15T12:45:04.806Z,61.86
2022-09-15T12:47:41.318Z,61.81
2022-09-15T12:50:20.612Z,62.87
2022-09-15T12:52:48.655Z,63.42
2022-09-15T12:55:41.457Z,63.74
2022-09-15T12:58:09.611Z,63.98
2022-09-15T13:00:54.810Z,63.83
2022-09-15T13:03:28.357Z,63.98
2022-09-15T13:06:12.504Z,62.81
2022-09-15T13:08:38.798Z,63.44
2022-09-15T13:11:08.643Z,62.80
2022-09-15T13:13:39.435Z,62.42
2022-09-15T13:16:12.034Z,62.36
2022-09-15T13:18:38.645Z,60.45
2022-09-15T13:21:07.442Z,60.95
2022-09-15T13:23:39.818Z,61.09
2022-09-15T13:26:08.855Z,60.42
2022-09-15T13:28:36.594Z,60.10
2022-09-15T13:31:15.101Z,59.01
2022-09-15T13:39:48.609Z,58.70
2022-09-15T13:42:14.932Z,58.36
2022-09-15T13:44:56.646Z,58.40
2022-09-15T13:47:25.965Z,58.69
2022-09-15T13:49:55.242Z,57.81
2022-09-15T13:52:26.848Z,57.47
2022-09-15T13:55:11.817Z,58.17
2022-09-15T14:00:42.422Z,64.40
2022-09-15T14:03:11.189Z,66.29
2022-09-15T14:05:37.778Z,68.92
2022-09-15T14:08:07.692Z,68.35
2022-09-15T14:10:39.321Z,70.54
2022-09-15T14:13:05.653Z,70.55
2022-09-15T14:15:32.103Z,70.68
2022-09-15T14:17:58.461Z,71.65
2022-09-15T14:20:27.001Z,71.74
2022-09-15T14:22:53.373Z,72.00
2022-09-15T14:25:20.142Z,72.13
2022-09-15T14:27:50.803Z,71.74
2022-09-15T14:30:22.623Z,72.32
2022-09-15T14:32:52.322Z,72.94
2022-09-15T14:35:24.142Z,72.50
2022-09-15T14:37:56.010Z,72.36
2022-09-15T14:40:24.485Z,73.29
2022-09-15T14:42:51.305Z,72.75
2022-09-15T14:48:16.545Z,73.97
2022-09-15T14:50:48.188Z,73.69
2022-09-15T14:53:17.784Z,73.01
2022-09-15T14:55:44.051Z,72.84
2022-09-15T14:58:16.714Z,72.85
2022-09-15T15:00:49.805Z,73.31
2022-09-15T15:03:18.176Z,72.48
2022-09-15T15:05:54.691Z,72.34
2022-09-15T15:08:34.137Z,72.27
2022-09-15T15:11:01.000Z,72.63
2022-09-15T15:13:27.972Z,71.93
2022-09-15T15:15:54.439Z,71.30
2022-09-15T15:18:51.334Z,69.64
2022-09-15T15:21:31.157Z,69.19
2022-09-15T15:23:57.751Z,68.91
2022-09-15T15:26:34.645Z,68.18
2022-09-15T15:29:01.118Z,68.30
2022-09-15T15:31:28.675Z,68.08
2022-09-15T15:33:57.087Z,67.62
2022-09-15T15:36:24.192Z,68.07
2022-09-15T15:38:52.698Z,67.55
2022-09-15T15:41:20.599Z,67.77
2022-09-15T15:43:57.369Z,67.50
2022-09-15T15:46:42.597Z,67.82
2022-09-15T15:49:13.207Z,67.21
2022-09-15T15:51:40.218Z,67.59
2022-09-15T15:54:06.571Z,67.29
2022-09-15T15:56:37.673Z,67.94
2022-09-15T15:59:04.282Z,68.83
2022-09-15T16:01:31.027Z,68.76
2022-09-15T16:03:57.629Z,68.48
2022-09-15T16:06:24.039Z,68.50
2022-09-15T16:08:51.322Z,69.15
2022-09-15T16:11:17.716Z,68.22
2022-09-15T16:13:44.187Z,68.70
2022-09-15T16:16:20.603Z,68.82
2022-09-15T16:18:47.453Z,68.10
2022-09-15T16:21:16.618Z,69.11
2022-09-15T16:23:43.015Z,70.02
2022-09-15T16:26:11.246Z,68.80
2022-09-15T16:28:37.898Z,69.55
2022-09-15T16:31:04.463Z,70.52
2022-09-15T16:33:34.608Z,70.21
2022-09-15T16:36:06.964Z,69.75
2022-09-15T16:38:33.968Z,69.73
2022-09-15T16:41:00.945Z,70.44
2022-09-15T16:43:27.361Z,70.88
2022-09-15T16:45:53.716Z,71.19
2022-09-15T16:48:20.104Z,70.46
2022-09-15T16:51:23.027Z,71.26
2022-09-15T16:53:33.238Z,70.74
2022-09-15T16:55:59.596Z,70.80
2022-09-15T16:58:25.888Z,71.19
2022-09-15T17:00:52.770Z,71.88
2022-09-15T17:03:20.520Z,73.10
2022-09-15T17:05:48.795Z,72.71
2022-09-15T17:08:16.192Z,72.61
2022-09-15T17:10:42.892Z,73.03
2022-09-15T17:13:12.080Z,71.43
2022-09-15T17:15:39.397Z,69.87
2022-09-15T17:18:06.957Z,69.94
2022-09-15T17:20:38.557Z,69.88
2022-09-15T17:23:16.114Z,69.89
2022-09-15T17:25:48.854Z,69.36
2022-09-15T17:28:15.207Z,69.06
2022-09-15T17:30:41.721Z,68.10
2022-09-15T17:33:10.910Z,68.26
2022-09-15T17:35:37.623Z,68.96
2022-09-15T17:38:05.028Z,67.66
2022-09-15T17:40:31.504Z,67.62
2022-09-15T17:42:58.341Z,68.52
2022-09-15T17:45:27.005Z,68.15
2022-09-15T17:47:53.978Z,67.90
2022-09-15T17:50:21.523Z,68.04
2022-09-15T17:52:48.407Z,67.33
2022-09-15T17:55:35.029Z,67.04
2022-09-15T17:58:02.453Z,67.49
2022-09-15T18:00:30.121Z,67.22
2022-09-15T18:02:58.293Z,68.50
2022-09-15T18:05:29.670Z,68.97
2022-09-15T18:07:58.560Z,67.79
2022-09-15T18:10:25.542Z,69.29
2022-09-15T18:12:55.568Z,69.16
2022-09-15T18:15:23.763Z,68.42
2022-09-15T18:17:51.121Z,69.16
2022-09-15T18:20:19.131Z,69.19
2022-09-15T18:22:45.859Z,68.28
2022-09-15T18:25:20.454Z,68.91
2022-09-15T18:27:49.182Z,70.02
2022-09-15T18:30:16.641Z,68.57
2022-09-15T18:32:43.288Z,69.47
2022-09-15T18:35:10.015Z,69.39
2022-09-15T18:37:37.047Z,69.11
2022-09-15T18:40:09.125Z,69.61
2022-09-15T18:42:39.487Z,69.02
2022-09-15T18:45:06.960Z,68.95
2022-09-15T18:47:33.747Z,70.79
2022-09-15T18:50:00.716Z,71.98
2022-09-15T18:52:27.466Z,71.21
2022-09-15T18:54:53.863Z,70.74
2022-09-15T18:57:20.250Z,70.63
2022-09-15T18:59:47.584Z,70.06
2022-09-15T19:02:14.643Z,70.09
2022-09-15T19:04:41.939Z,70.40
2022-09-15T19:07:08.758Z,68.45
2022-09-15T19:09:36.387Z,70.19
2022-09-15T19:12:03.301Z,68.95
2022-09-15T19:14:30.170Z,69.89
2022-09-15T19:16:58.331Z,69.23
2022-09-15T19:19:25.260Z,70.55
2022-09-15T19:21:51.697Z,69.66
2022-09-15T19:24:18.291Z,70.05
2022-09-15T19:26:46.696Z,69.92
2022-09-15T19:29:13.366Z,68.79
2022-09-15T19:31:42.120Z,69.21
2022-09-15T19:34:09.020Z,69.15
2022-09-15T19:36:35.435Z,68.72
2022-09-15T19:39:03.377Z,68.06
2022-09-15T19:41:31.337Z,68.06
2022-09-15T19:44:00.069Z,68.49
2022-09-15T19:46:27.019Z,67.71
2022-09-15T19:48:53.671Z,69.56
2022-09-15T19:51:20.574Z,67.27
2022-09-15T19:53:47.001Z,68.78
2022-09-15T19:56:14.449Z,67.79
2022-09-15T19:58:40.865Z,68.64
2022-09-15T20:01:07.292Z,68.18
2022-09-15T20:03:33.626Z,68.06
2022-09-15T20:05:59.928Z,67.81
2022-09-15T20:08:26.782Z,69.32
2022-09-15T20:10:53.335Z,69.29
2022-09-15T20:13:19.725Z,69.82
2022-09-15T20:15:56.819Z,69.21
2022-09-15T20:18:23.454Z,68.95
2022-09-15T20:20:49.828Z,68.13
2022-09-15T20:23:16.363Z,69.53
2022-09-15T20:25:42.844Z,69.47
2022-09-15T20:28:09.137Z,69.65
2022-09-15T20:30:35.565Z,69.49
2022-09-15T20:33:01.880Z,69.33
2022-09-15T20:35:28.175Z,68.95
2022-09-15T20:37:54.522Z,69.87
2022-09-15T20:40:20.848Z,69.80
2022-09-15T20:42:47.734Z,70.56
2022-09-15T20:45:14.089Z,68.66
2022-09-15T20:47:40.400Z,68.58
2022-09-15T20:50:06.903Z,69.38
2022-09-15T20:52:38.265Z,69.23
2022-09-15T20:55:05.123Z,68.14
2022-09-15T20:57:31.935Z,68.67
2022-09-15T20:59:58.242Z,68.05
2022-09-15T21:02:24.599Z,68.45
2022-09-15T21:04:50.878Z,68.08
2022-09-15T21:07:17.261Z,68.05
2022-09-15T21:09:44.549Z,68.42
2022-09-15T21:12:10.844Z,68.13
2022-09-15T21:14:37.141Z,68.57
2022-09-15T21:17:03.495Z,69.05
2022-09-15T21:19:31.403Z,68.59
2022-09-15T21:21:58.442Z,67.99
2022-09-15T21:24:24.755Z,69.04
2022-09-15T21:27:10.151Z,67.54
2022-09-15T21:29:37.022Z,67.64
2022-09-15T21:32:03.389Z,69.55
2022-09-15T21:34:30.211Z,68.37
2022-09-15T21:36:57.856Z,68.56
2022-09-15T21:39:24.268Z,69.57
2022-09-15T21:41:50.612Z,71.05
2022-09-15T21:44:17.269Z,69.88
2022-09-15T21:46:44.907Z,69.65
2022-09-15T21:49:11.666Z,70.29
2022-09-15T21:51:38.012Z,70.21
2022-09-15T21:54:04.873Z,71.87
2022-09-15T21:56:31.297Z,71.13
2022-09-15T21:58:57.640Z,72.53
2022-09-15T22:01:29.120Z,72.29
2022-09-15T22:04:00.111Z,73.07
2022-09-15T22:06:30.450Z,72.55
2022-09-15T22:08:57.118Z,73.56
2022-09-15T22:11:23.509Z,73.36
2022-09-15T22:13:49.861Z,74.01
2022-09-15T22:16:20.795Z,74.56
2022-09-15T22:18:47.748Z,73.98
2022-09-15T22:21:18.439Z,74.63
2022-09-15T22:23:46.274Z,75.28
2022-09-15T22:26:15.042Z,75.60
2022-09-15T22:28:41.417Z,75.27
2022-09-15T22:31:08.826Z,75.61
2022-09-15T22:33:35.636Z,74.66
2022-09-15T22:36:02.478Z,74.94
2022-09-15T22:38:29.816Z,75.86
2022-09-15T22:40:56.684Z,75.14
2022-09-15T22:43:23.022Z,76.91
2022-09-15T22:45:49.564Z,75.83
2022-09-15T22:48:15.945Z,75.95
2022-09-15T22:50:43.788Z,76.48
2022-09-15T22:53:10.074Z,75.83
2022-09-15T22:55:36.378Z,75.18
2022-09-15T22:58:02.660Z,76.63
2022-09-15T23:00:29.225Z,75.58
2022-09-15T23:02:56.127Z,75.86
2022-09-15T23:05:22.431Z,75.59
2022-09-15T23:07:48.756Z,75.70
2022-09-15T23:10:15.081Z,75.09
2022-09-15T23:12:41.451Z,75.30
2022-09-15T23:15:08.085Z,76.99
2022-09-15T23:17:34.676Z,76.97
2022-09-15T23:20:01.100Z,76.81
2022-09-15T23:22:27.388Z,76.48
2022-09-15T23:24:53.834Z,74.89
2022-09-15T23:27:20.141Z,74.94
2022-09-15T23:29:46.461Z,75.34
2022-09-15T23:32:12.817Z,75.80
2022-09-15T23:34:39.100Z,74.32
2022-09-15T23:37:05.447Z,75.33
2022-09-15T23:39:31.784Z,75.07
2022-09-15T23:41:58.124Z,74.33
2022-09-15T23:44:24.668Z,74.54
2022-09-15T23:46:51.069Z,75.35
2022-09-15T23:49:18.825Z,75.60
2022-09-15T23:51:45.298Z,75.00
2022-09-15T23:54:11.644Z,75.20
2022-09-15T23:56:38.362Z,75.02
2022-09-15T23:59:04.659Z,76.75
